createdAt,value
2019-02-19T00:00:22.946Z,623.63
2019-02-19T00:05:30.865Z,901.27
2019-02-19T00:10:38.307Z,1115.90
2019-02-19T00:15:44.948Z,752.80
2019-02-19T00:20:51.581Z,472.80
2019-02-19T00:25:58.207Z,261.40
2019-02-19T00:31:04.665Z,114.10
2019-02-19T00:36:11.244Z,59.10
2019-02-19T00:41:17.715Z,44.73
2019-02-19T00:46:24.372Z,41.80
2019-02-19T00:51:30.888Z,38.40
2019-02-19T00:56:37.472Z,151.87
2019-02-19T01:01:45.730Z,64.07
2019-02-19T01:06:52.288Z,69.03
2019-02-19T01:11:58.775Z,261.33
2019-02-19T01:22:12.243Z,68.10
2019-02-19T01:27:18.703Z,263.57
2019-02-19T01:32:25.279Z,67.30
2019-02-19T01:37:31.801Z,38.00
2019-02-19T01:42:40.538Z,30.13
2019-02-19T01:47:48.780Z,28.07
2019-02-19T01:52:55.444Z,26.10
2019-02-19T01:58:02.005Z,25.43
2019-02-19T02:03:08.720Z,23.10
2019-02-19T02:23:35.034Z,20.17
2019-02-19T02:28:41.639Z,20.70
2019-02-19T02:38:54.819Z,381.33
2019-02-19T02:44:01.498Z,85.60
2019-02-19T02:49:08.101Z,39.50
2019-02-19T02:54:14.705Z,25.07
2019-02-19T03:04:27.428Z,21.70
2019-02-19T03:09:34.047Z,17.63
2019-02-19T03:14:40.703Z,17.93
2019-02-19T03:24:53.668Z,15.93
2019-02-19T03:30:00.401Z,15.70
2019-02-19T03:35:06.836Z,16.07
2019-02-19T03:40:13.534Z,96.70
2019-02-19T03:45:32.034Z,26.33
2019-02-19T03:50:38.781Z,18.32
2019-02-19T03:55:45.412Z,14.57
2019-02-19T04:00:52.027Z,14.80
2019-02-19T04:05:58.634Z,12.75
2019-02-19T04:16:20.848Z,12.73
2019-02-19T04:21:20.748Z,13.23
2019-02-19T04:31:34.532Z,11.97
2019-02-19T04:36:41.836Z,13.20
2019-02-19T04:41:48.737Z,12.07
2019-02-19T04:46:55.422Z,11.25
2019-02-19T04:52:01.960Z,13.07
2019-02-19T04:57:08.693Z,11.93
2019-02-19T05:02:15.446Z,11.57
2019-02-19T05:07:22.032Z,11.40
2019-02-19T05:12:28.650Z,10.70
2019-02-19T05:22:41.730Z,11.60
2019-02-19T05:32:54.690Z,11.50
2019-02-19T05:43:07.746Z,10.53
2019-02-19T05:48:14.613Z,10.93
2019-02-19T05:53:21.331Z,11.50
2019-02-19T05:58:27.812Z,11.53
2019-02-19T06:03:34.505Z,11.22
2019-02-19T06:13:47.571Z,10.07
2019-02-19T06:18:54.283Z,9.93
2019-02-19T06:29:07.321Z,11.30
2019-02-19T06:34:14.402Z,9.63
2019-02-19T06:39:20.987Z,10.13
2019-02-19T06:44:28.063Z,11.27
2019-02-19T06:54:40.765Z,9.50
2019-02-19T06:59:47.447Z,10.33
2019-02-19T07:04:54.443Z,11.27
2019-02-19T07:15:07.718Z,10.90
2019-02-19T07:20:14.402Z,9.63
2019-02-19T07:25:21.030Z,9.50
2019-02-19T07:30:27.679Z,9.20
2019-02-19T07:35:34.371Z,9.77
2019-02-19T07:40:40.856Z,11.80
2019-02-19T07:45:47.742Z,10.67
2019-02-19T07:50:54.429Z,13.10
2019-02-19T07:56:00.997Z,10.25
2019-02-19T08:01:07.703Z,11.50
2019-02-19T08:11:20.689Z,11.73
2019-02-19T08:16:28.026Z,11.00
2019-02-19T08:21:34.656Z,11.57
2019-02-19T08:31:47.773Z,416.77
2019-02-19T08:36:54.694Z,543.30
2019-02-19T08:42:01.429Z,503.15
2019-02-19T08:47:08.148Z,256.77
2019-02-19T08:52:14.783Z,85.97
2019-02-19T08:57:22.595Z,32.55
2019-02-19T09:02:29.291Z,19.17
2019-02-19T09:07:36.028Z,16.13
2019-02-19T09:12:42.658Z,15.35
2019-02-19T09:22:57.481Z,14.87
2019-02-19T09:28:04.091Z,15.13
2019-02-19T09:33:10.648Z,12.73
2019-02-19T09:48:41.656Z,12.47
2019-02-19T09:53:48.430Z,10.75
2019-02-19T09:58:55.051Z,11.93
2019-02-19T10:04:01.596Z,10.32
2019-02-19T10:14:16.752Z,10.30
2019-02-19T10:24:29.794Z,9.27
2019-02-19T10:34:43.686Z,9.03
2019-02-19T10:44:56.650Z,9.43
2019-02-19T10:50:04.284Z,9.73
2019-02-19T10:55:10.848Z,10.95
2019-02-19T11:00:18.656Z,9.03
2019-02-19T11:05:25.348Z,10.87
2019-02-19T11:10:31.832Z,8.70
2019-02-19T11:15:38.669Z,8.80
2019-02-19T11:20:45.412Z,9.20
2019-02-19T11:25:51.959Z,8.90
2019-02-19T11:30:58.690Z,9.17
2019-02-19T11:36:05.485Z,9.50
2019-02-19T11:41:12.270Z,9.70
2019-02-19T11:51:25.281Z,8.77
2019-02-19T11:56:31.818Z,10.00
2019-02-19T12:01:38.716Z,9.70
2019-02-19T12:06:45.394Z,9.78
2019-02-19T12:11:52.029Z,9.77
2019-02-19T12:16:58.666Z,9.23
2019-02-19T12:27:11.636Z,9.73
2019-02-19T12:37:25.002Z,10.00
2019-02-19T12:47:38.021Z,9.77
2019-02-19T12:52:44.668Z,10.80
2019-02-19T13:02:57.965Z,11.03
2019-02-19T13:08:04.731Z,10.17
2019-02-19T13:18:17.725Z,11.47
2019-02-19T13:28:30.771Z,10.80
2019-02-19T13:33:37.860Z,11.17
2019-02-19T13:38:44.032Z,11.50
2019-02-19T13:43:50.719Z,11.40
2019-02-19T13:54:04.812Z,11.37
2019-02-19T13:59:11.705Z,11.47
2019-02-19T14:04:18.397Z,12.87
2019-02-19T14:09:25.033Z,13.98
2019-02-19T14:14:36.031Z,12.27
2019-02-19T14:19:44.398Z,11.73
2019-02-19T14:24:55.434Z,11.90
2019-02-19T14:35:27.800Z,20.30
2019-02-19T14:40:42.225Z,76.77
2019-02-19T14:45:52.275Z,77.43
2019-02-19T14:51:17.771Z,47.80
2019-02-19T14:56:35.047Z,25.17
2019-02-19T15:01:43.757Z,43.60
2019-02-19T15:06:54.850Z,55.53
2019-02-19T15:12:03.034Z,29.65
2019-02-19T15:17:11.278Z,32.60
2019-02-19T15:22:31.576Z,122.03
2019-02-19T15:37:59.645Z,274.23
2019-02-19T15:43:25.445Z,402.93
2019-02-19T15:48:36.882Z,345.80
2019-02-19T15:54:07.517Z,550.13
2019-02-19T16:09:56.454Z,220.17
2019-02-19T16:20:27.754Z,301.80
2019-02-19T16:25:40.980Z,166.33
2019-02-19T16:31:01.608Z,51.97
2019-02-19T16:36:10.443Z,119.50
2019-02-19T16:46:56.084Z,59.83
2019-02-19T16:52:07.575Z,187.97
2019-02-19T16:57:13.947Z,359.70
2019-02-19T17:02:22.383Z,84.13
2019-02-19T17:07:36.762Z,35.73
2019-02-19T17:12:45.808Z,29.87
2019-02-19T17:17:54.049Z,21.90
2019-02-19T17:23:18.398Z,19.90
2019-02-19T17:28:29.717Z,19.50
2019-02-19T17:33:47.098Z,19.53
2019-02-19T17:44:06.097Z,18.40
2019-02-19T17:49:31.384Z,17.27
2019-02-19T17:54:45.650Z,17.07
2019-02-19T17:59:53.775Z,17.27
2019-02-19T18:10:21.033Z,18.95
2019-02-19T18:15:47.746Z,17.20
2019-02-19T18:20:54.424Z,16.10
2019-02-19T18:26:01.022Z,16.80
2019-02-19T18:31:07.696Z,16.40
2019-02-19T18:41:20.666Z,16.67
2019-02-19T18:51:33.726Z,15.10
2019-02-19T18:56:40.512Z,17.27
2019-02-19T19:06:53.576Z,15.23
2019-02-19T19:27:19.813Z,14.80
2019-02-19T19:32:26.818Z,14.57
2019-02-19T19:37:33.520Z,15.40
2019-02-19T19:42:40.396Z,14.30
2019-02-19T19:47:47.020Z,15.70
2019-02-19T19:52:53.663Z,14.43
2019-02-19T20:03:06.739Z,14.87
2019-02-19T20:08:13.484Z,14.70
2019-02-19T20:13:19.605Z,17.63
2019-02-19T20:23:32.564Z,14.03
2019-02-19T20:28:39.283Z,14.27
2019-02-19T20:33:45.850Z,15.33
2019-02-19T20:38:52.623Z,14.87
2019-02-19T20:49:05.696Z,14.97
2019-02-19T20:59:18.784Z,17.23
2019-02-19T21:04:25.412Z,15.30
2019-02-19T21:09:37.412Z,161.07
2019-02-19T21:14:40.668Z,214.40
2019-02-19T21:19:47.353Z,75.50
2019-02-19T21:24:53.936Z,441.07
2019-02-19T21:30:01.907Z,278.80
2019-02-19T21:35:08.544Z,94.27
2019-02-19T21:40:15.378Z,496.17
2019-02-19T21:45:22.117Z,264.90
2019-02-19T21:50:28.808Z,200.87
2019-02-19T21:55:47.378Z,159.45
2019-02-19T22:00:54.377Z,475.70
2019-02-19T22:06:01.033Z,140.07
2019-02-19T22:11:07.747Z,92.17
2019-02-19T22:16:14.548Z,100.47
2019-02-19T22:21:22.855Z,298.15
2019-02-19T22:26:29.856Z,475.37
2019-02-19T22:31:36.853Z,275.90
2019-02-19T22:36:43.436Z,165.53
2019-02-19T22:41:50.428Z,302.93
2019-02-19T22:46:56.994Z,99.20
2019-02-19T22:52:11.952Z,122.65
2019-02-19T22:57:12.852Z,147.60
2019-02-19T23:02:19.543Z,128.33
2019-02-19T23:07:27.257Z,260.90
2019-02-19T23:12:33.708Z,61.73
2019-02-19T23:17:40.415Z,64.43
2019-02-19T23:22:46.980Z,67.17
2019-02-19T23:27:53.691Z,119.93
2019-02-19T23:38:07.783Z,423.53
2019-02-19T23:43:14.639Z,653.02
2019-02-19T23:48:21.463Z,336.05
2019-02-19T23:53:28.195Z,572.05
2019-02-19T23:58:34.951Z,618.08
